RYR7SA EGSS-LHBP
Flight info
| Callsign | RYR7SA |
|---|---|
| Flight time | 1h 59m |
| Altitude | 37000 |
| Route | CLN P44 RATLO M197 REDFA DCT TACHA DCT NOMKA DCT OMELO DCT PEPIK DCT NIT M748 ARFOX |
| Aircraft | B738/M-SDE3FGILRWY/SB1 |
Departure
| Time | 2026-05-04 17:04 |
|---|---|
| Airport | London Stansted Airport (EGSS) |
Arrival
| Time | 2026-05-04 19:03 |
|---|---|
| Airport | Budapest Liszt Ferenc International Airport (LHBP) |
| Time | Latitude | Longitude | Altitude | Speed | Heading |
|---|---|---|---|---|---|
| 2026-05-04 16:29 | 51.89263 | 0.25916 | 351 ft | 0 kts | 43° |
| 2026-05-04 16:54 | 51.89251 | 0.25899 | 361 ft | 4 kts | 43° |
| 2026-05-04 16:55 | 51.89201 | 0.25904 | 361 ft | 0 kts | 313° |
| 2026-05-04 16:57 | 51.89202 | 0.25902 | 361 ft | 1 kts | 313° |
| 2026-05-04 16:58 | 51.89334 | 0.25674 | 359 ft | 18 kts | 313° |
| 2026-05-04 16:58 | 51.89344 | 0.25527 | 351 ft | 15 kts | 220° |
| 2026-05-04 16:59 | 51.89183 | 0.25288 | 354 ft | 18 kts | 223° |
| 2026-05-04 17:00 | 51.88675 | 0.24526 | 347 ft | 28 kts | 222° |
| 2026-05-04 17:00 | 51.88293 | 0.23950 | 349 ft | 23 kts | 223° |
| 2026-05-04 17:01 | 51.88030 | 0.23558 | 338 ft | 28 kts | 223° |
| 2026-05-04 17:01 | 51.87768 | 0.23163 | 339 ft | 24 kts | 224° |
| 2026-05-04 17:02 | 51.87761 | 0.22857 | 335 ft | 15 kts | 223° |
| 2026-05-04 17:02 | 51.87510 | 0.22479 | 329 ft | 28 kts | 222° |
| 2026-05-04 17:03 | 51.87402 | 0.22286 | 323 ft | 17 kts | 255° |
| 2026-05-04 17:03 | 51.87450 | 0.22122 | 322 ft | 18 kts | 312° |
| 2026-05-04 17:03 | 51.87636 | 0.22185 | 323 ft | 24 kts | 42° |
| 2026-05-04 17:04 | 51.88568 | 0.23579 | 352 ft | 150 kts | 43° |
| 2026-05-04 17:04 | 51.90254 | 0.26115 | 1732 ft | 164 kts | 41° |
| 2026-05-04 17:05 | 51.91477 | 0.29418 | 3093 ft | 191 kts | 75° |
| 2026-05-04 17:05 | 51.91054 | 0.33800 | 4137 ft | 224 kts | 118° |
| 2026-05-04 17:06 | 51.89556 | 0.38735 | 4837 ft | 265 kts | 116° |
| 2026-05-04 17:06 | 51.88726 | 0.41528 | 5478 ft | 279 kts | 116° |
| 2026-05-04 17:07 | 51.87051 | 0.47228 | 6897 ft | 288 kts | 117° |
| 2026-05-04 17:07 | 51.86467 | 0.49223 | 7418 ft | 290 kts | 116° |
| 2026-05-04 17:07 | 51.85322 | 0.53130 | 8625 ft | 291 kts | 117° |
| 2026-05-04 17:07 | 51.84447 | 0.56102 | 9471 ft | 294 kts | 116° |
| 2026-05-04 17:08 | 51.83576 | 0.59121 | 10247 ft | 298 kts | 113° |
| 2026-05-04 17:08 | 51.82958 | 0.65722 | 11845 ft | 301 kts | 87° |
| 2026-05-04 17:08 | 51.83125 | 0.69126 | 12576 ft | 304 kts | 81° |
| 2026-05-04 17:09 | 51.83580 | 0.72469 | 13446 ft | 304 kts | 75° |
| 2026-05-04 17:09 | 51.84145 | 0.75785 | 14139 ft | 308 kts | 75° |
| 2026-05-04 17:09 | 51.84743 | 0.79168 | 14729 ft | 315 kts | 75° |
| 2026-05-04 17:10 | 51.85967 | 0.86021 | 16083 ft | 322 kts | 75° |
| 2026-05-04 17:10 | 51.87858 | 0.96649 | 18045 ft | 334 kts | 76° |
| 2026-05-04 17:11 | 51.88500 | 1.00277 | 18672 ft | 336 kts | 76° |
| 2026-05-04 17:11 | 51.89145 | 1.03930 | 19269 ft | 339 kts | 76° |
| 2026-05-04 17:11 | 51.90452 | 1.11359 | 20405 ft | 347 kts | 76° |
| 2026-05-04 17:12 | 51.91114 | 1.15134 | 20975 ft | 350 kts | 76° |
| 2026-05-04 17:12 | 51.92455 | 1.22807 | 22105 ft | 357 kts | 76° |
| 2026-05-04 17:13 | 51.94492 | 1.34530 | 23739 ft | 367 kts | 76° |
| 2026-05-04 17:14 | 51.96578 | 1.46606 | 25172 ft | 373 kts | 76° |
| 2026-05-04 17:14 | 51.97277 | 1.50675 | 25624 ft | 376 kts | 76° |
| 2026-05-04 17:14 | 51.98678 | 1.58855 | 26527 ft | 380 kts | 77° |
| 2026-05-04 17:15 | 51.99386 | 1.63004 | 26986 ft | 383 kts | 77° |
| 2026-05-04 17:15 | 52.00810 | 1.71377 | 27851 ft | 387 kts | 77° |
| 2026-05-04 17:16 | 52.02010 | 1.78467 | 28578 ft | 391 kts | 77° |
| 2026-05-04 17:16 | 52.04173 | 1.91317 | 29745 ft | 399 kts | 77° |
| 2026-05-04 17:17 | 52.04904 | 1.95682 | 30141 ft | 401 kts | 77° |
| 2026-05-04 17:17 | 52.07121 | 2.08989 | 30995 ft | 410 kts | 78° |
| 2026-05-04 17:18 | 52.07864 | 2.13472 | 31318 ft | 412 kts | 78° |
| 2026-05-04 17:18 | 52.09356 | 2.22509 | 31899 ft | 416 kts | 78° |
| 2026-05-04 17:19 | 52.10859 | 2.31657 | 32471 ft | 420 kts | 78° |
| 2026-05-04 17:19 | 52.12369 | 2.40898 | 33009 ft | 424 kts | 78° |
| 2026-05-04 17:20 | 52.13875 | 2.50172 | 33451 ft | 430 kts | 78° |
| 2026-05-04 17:20 | 52.15404 | 2.59636 | 33975 ft | 433 kts | 78° |
| 2026-05-04 17:20 | 52.16170 | 2.64392 | 34220 ft | 434 kts | 78° |
| 2026-05-04 17:21 | 52.17701 | 2.73946 | 34643 ft | 437 kts | 78° |
| 2026-05-04 17:21 | 52.19235 | 2.83574 | 35044 ft | 440 kts | 78° |
| 2026-05-04 17:22 | 52.20003 | 2.88417 | 35236 ft | 442 kts | 78° |
| 2026-05-04 17:22 | 52.20771 | 2.93271 | 35429 ft | 443 kts | 78° |
| 2026-05-04 17:23 | 52.23089 | 3.08000 | 35912 ft | 449 kts | 78° |
| 2026-05-04 17:23 | 52.23862 | 3.12939 | 36111 ft | 450 kts | 78° |
| 2026-05-04 17:23 | 52.25229 | 3.22848 | 36401 ft | 452 kts | 87° |
| 2026-05-04 17:24 | 52.25353 | 3.27956 | 36542 ft | 450 kts | 97° |
| 2026-05-04 17:24 | 52.24147 | 3.43115 | 37000 ft | 451 kts | 101° |
| 2026-05-04 17:25 | 52.23699 | 3.48210 | 36997 ft | 455 kts | 101° |
| 2026-05-04 17:26 | 52.21950 | 3.68899 | 37003 ft | 464 kts | 101° |
| 2026-05-04 17:26 | 52.20667 | 3.84352 | 36982 ft | 453 kts | 101° |
| 2026-05-04 17:27 | 52.19809 | 3.94518 | 36969 ft | 452 kts | 101° |
| 2026-05-04 17:28 | 52.18064 | 4.14809 | 36988 ft | 453 kts | 102° |
| 2026-05-04 17:29 | 52.15372 | 4.45330 | 36978 ft | 456 kts | 102° |
| 2026-05-04 17:31 | 52.13050 | 4.70942 | 36994 ft | 459 kts | 102° |
| 2026-05-04 17:32 | 52.10671 | 4.96565 | 36977 ft | 459 kts | 102° |
| 2026-05-04 17:33 | 52.08725 | 5.17064 | 36973 ft | 458 kts | 102° |
| 2026-05-04 17:34 | 52.06748 | 5.37499 | 36970 ft | 457 kts | 103° |
| 2026-05-04 17:35 | 52.04235 | 5.62936 | 36983 ft | 456 kts | 103° |
| 2026-05-04 17:36 | 52.03214 | 5.73105 | 36965 ft | 456 kts | 103° |
| 2026-05-04 17:36 | 52.02184 | 5.83275 | 36965 ft | 457 kts | 103° |
| 2026-05-04 17:37 | 52.01144 | 5.93451 | 36959 ft | 457 kts | 103° |
| 2026-05-04 17:37 | 52.00097 | 6.03611 | 36972 ft | 457 kts | 103° |
| 2026-05-04 17:38 | 51.99036 | 6.13806 | 36977 ft | 458 kts | 103° |
| 2026-05-04 17:38 | 51.97981 | 6.23864 | 36970 ft | 459 kts | 103° |
| 2026-05-04 17:39 | 51.96358 | 6.39158 | 36963 ft | 459 kts | 104° |
| 2026-05-04 17:39 | 51.95263 | 6.49374 | 36975 ft | 460 kts | 104° |
| 2026-05-04 17:40 | 51.94159 | 6.59584 | 36974 ft | 461 kts | 104° |
| 2026-05-04 17:40 | 51.93043 | 6.69822 | 36977 ft | 461 kts | 104° |
| 2026-05-04 17:41 | 51.91917 | 6.80061 | 36982 ft | 462 kts | 104° |
| 2026-05-04 17:41 | 51.90784 | 6.90272 | 36972 ft | 464 kts | 104° |
| 2026-05-04 17:42 | 51.89594 | 7.00559 | 36982 ft | 465 kts | 105° |
| 2026-05-04 17:42 | 51.88352 | 7.10848 | 36985 ft | 465 kts | 105° |
| 2026-05-04 17:43 | 51.87107 | 7.21123 | 36977 ft | 465 kts | 105° |
| 2026-05-04 17:43 | 51.85864 | 7.31384 | 36984 ft | 464 kts | 105° |
| 2026-05-04 17:44 | 51.84617 | 7.41627 | 36973 ft | 463 kts | 105° |
| 2026-05-04 17:44 | 51.83365 | 7.51842 | 36983 ft | 463 kts | 105° |
| 2026-05-04 17:45 | 51.82103 | 7.62054 | 36981 ft | 463 kts | 105° |
| 2026-05-04 17:45 | 51.80833 | 7.72255 | 36980 ft | 463 kts | 105° |
| 2026-05-04 17:46 | 51.79554 | 7.82450 | 36966 ft | 463 kts | 105° |
| 2026-05-04 17:46 | 51.78267 | 7.92633 | 36980 ft | 464 kts | 105° |
| 2026-05-04 17:47 | 51.76967 | 8.02837 | 36977 ft | 464 kts | 105° |
| 2026-05-04 17:47 | 51.75657 | 8.13048 | 36977 ft | 465 kts | 105° |
| 2026-05-04 17:48 | 51.74337 | 8.23264 | 36976 ft | 465 kts | 105° |
| 2026-05-04 17:48 | 51.73015 | 8.33425 | 36969 ft | 466 kts | 105° |
| 2026-05-04 17:49 | 51.71675 | 8.43643 | 36978 ft | 466 kts | 106° |
| 2026-05-04 17:49 | 51.70325 | 8.53867 | 36966 ft | 466 kts | 106° |
| 2026-05-04 17:50 | 51.68965 | 8.64101 | 36966 ft | 467 kts | 106° |
| 2026-05-04 17:50 | 51.67594 | 8.74332 | 36957 ft | 467 kts | 106° |
| 2026-05-04 17:51 | 51.66215 | 8.84556 | 36971 ft | 467 kts | 106° |
| 2026-05-04 17:51 | 51.64827 | 8.94778 | 36973 ft | 468 kts | 106° |
| 2026-05-04 17:52 | 51.63427 | 9.05011 | 36970 ft | 468 kts | 106° |
| 2026-05-04 17:52 | 51.62019 | 9.15231 | 36964 ft | 468 kts | 106° |
| 2026-05-04 17:53 | 51.60605 | 9.25433 | 36967 ft | 468 kts | 106° |
| 2026-05-04 17:53 | 51.59174 | 9.35674 | 36973 ft | 468 kts | 106° |
| 2026-05-04 17:54 | 51.57741 | 9.45870 | 36992 ft | 468 kts | 106° |
| 2026-05-04 17:54 | 51.56298 | 9.56065 | 36986 ft | 467 kts | 107° |
| 2026-05-04 17:55 | 51.54847 | 9.66242 | 36986 ft | 467 kts | 106° |
| 2026-05-04 17:55 | 51.53388 | 9.76412 | 36978 ft | 467 kts | 107° |
| 2026-05-04 17:56 | 51.51922 | 9.86565 | 36971 ft | 466 kts | 107° |
| 2026-05-04 17:56 | 51.50450 | 9.96692 | 36981 ft | 466 kts | 107° |
| 2026-05-04 17:57 | 51.48977 | 10.06755 | 36981 ft | 466 kts | 107° |
| 2026-05-04 17:57 | 51.47487 | 10.16873 | 36964 ft | 465 kts | 107° |
| 2026-05-04 17:58 | 51.45981 | 10.27033 | 36977 ft | 465 kts | 107° |
| 2026-05-04 17:58 | 51.44487 | 10.37045 | 36988 ft | 465 kts | 107° |
| 2026-05-04 17:59 | 51.42975 | 10.47110 | 36978 ft | 465 kts | 107° |
| 2026-05-04 18:00 | 51.40688 | 10.62223 | 36963 ft | 465 kts | 107° |
| 2026-05-04 18:00 | 51.39156 | 10.72268 | 36971 ft | 464 kts | 107° |
| 2026-05-04 18:01 | 51.37876 | 10.80606 | 36978 ft | 464 kts | 107° |
| 2026-05-04 18:01 | 51.36329 | 10.90631 | 36976 ft | 464 kts | 107° |
| 2026-05-04 18:02 | 51.33991 | 11.05667 | 36959 ft | 464 kts | 107° |
| 2026-05-04 18:02 | 51.32422 | 11.15677 | 36970 ft | 464 kts | 107° |
| 2026-05-04 18:03 | 51.30843 | 11.25694 | 36980 ft | 465 kts | 108° |
| 2026-05-04 18:03 | 51.29254 | 11.35711 | 36967 ft | 466 kts | 108° |
| 2026-05-04 18:04 | 51.27653 | 11.45744 | 36979 ft | 466 kts | 108° |
| 2026-05-04 18:05 | 51.25234 | 11.60787 | 36977 ft | 467 kts | 108° |
| 2026-05-04 18:05 | 51.23605 | 11.70843 | 36976 ft | 468 kts | 108° |
| 2026-05-04 18:06 | 51.21140 | 11.85946 | 36970 ft | 469 kts | 108° |
| 2026-05-04 18:06 | 51.19484 | 11.96017 | 36951 ft | 470 kts | 108° |
| 2026-05-04 18:07 | 51.17820 | 12.06079 | 36956 ft | 469 kts | 108° |
| 2026-05-04 18:07 | 51.16148 | 12.16128 | 36966 ft | 468 kts | 108° |
| 2026-05-04 18:08 | 51.14482 | 12.26080 | 36952 ft | 467 kts | 108° |
| 2026-05-04 18:08 | 51.12802 | 12.36062 | 36948 ft | 466 kts | 108° |
| 2026-05-04 18:09 | 51.09429 | 12.55930 | 36940 ft | 463 kts | 108° |
| 2026-05-04 18:10 | 51.07736 | 12.65815 | 36945 ft | 462 kts | 108° |
| 2026-05-04 18:10 | 51.06038 | 12.75673 | 36947 ft | 462 kts | 108° |
| 2026-05-04 18:11 | 51.04335 | 12.85507 | 36957 ft | 461 kts | 108° |
| 2026-05-04 18:11 | 51.02626 | 12.95324 | 36959 ft | 461 kts | 108° |
| 2026-05-04 18:12 | 51.00921 | 13.05059 | 36980 ft | 461 kts | 108° |
| 2026-05-04 18:12 | 50.99194 | 13.14866 | 36977 ft | 461 kts | 108° |
| 2026-05-04 18:13 | 50.97457 | 13.24677 | 36978 ft | 462 kts | 108° |
| 2026-05-04 18:14 | 50.94831 | 13.39413 | 36973 ft | 463 kts | 108° |
| 2026-05-04 18:14 | 50.93068 | 13.49241 | 36975 ft | 464 kts | 108° |
| 2026-05-04 18:15 | 50.89504 | 13.68952 | 36977 ft | 466 kts | 108° |
| 2026-05-04 18:16 | 50.87708 | 13.78809 | 36974 ft | 466 kts | 108° |
| 2026-05-04 18:16 | 50.85901 | 13.88686 | 36960 ft | 467 kts | 109° |
| 2026-05-04 18:17 | 50.83734 | 13.98317 | 36959 ft | 462 kts | 122° |
| 2026-05-04 18:17 | 50.82044 | 14.02605 | 36970 ft | 458 kts | 130° |
| 2026-05-04 18:18 | 50.75541 | 14.13386 | 36969 ft | 453 kts | 139° |
| 2026-05-04 18:18 | 50.71048 | 14.20356 | 36960 ft | 452 kts | 139° |
| 2026-05-04 18:19 | 50.64355 | 14.30852 | 36954 ft | 452 kts | 139° |
| 2026-05-04 18:19 | 50.59904 | 14.37854 | 36961 ft | 452 kts | 139° |
| 2026-05-04 18:20 | 50.55451 | 14.44845 | 36954 ft | 452 kts | 139° |
| 2026-05-04 18:20 | 50.50992 | 14.51823 | 36959 ft | 452 kts | 139° |
| 2026-05-04 18:21 | 50.46532 | 14.58781 | 36950 ft | 452 kts | 139° |
| 2026-05-04 18:21 | 50.42068 | 14.65726 | 36946 ft | 452 kts | 139° |
| 2026-05-04 18:22 | 50.37600 | 14.72656 | 36944 ft | 452 kts | 139° |
| 2026-05-04 18:22 | 50.33126 | 14.79577 | 36947 ft | 452 kts | 139° |
| 2026-05-04 18:23 | 50.28647 | 14.86486 | 36947 ft | 452 kts | 139° |
| 2026-05-04 18:23 | 50.24160 | 14.93388 | 36942 ft | 452 kts | 138° |
| 2026-05-04 18:24 | 50.19671 | 15.00274 | 36946 ft | 452 kts | 138° |
| 2026-05-04 18:24 | 50.15177 | 15.07149 | 36945 ft | 452 kts | 138° |
| 2026-05-04 18:25 | 50.10678 | 15.14013 | 36943 ft | 452 kts | 139° |
| 2026-05-04 18:25 | 50.06174 | 15.20864 | 36940 ft | 452 kts | 139° |
| 2026-05-04 18:26 | 50.01668 | 15.27700 | 36939 ft | 452 kts | 139° |
| 2026-05-04 18:26 | 49.97156 | 15.34526 | 36944 ft | 453 kts | 139° |
| 2026-05-04 18:27 | 49.92641 | 15.41337 | 36938 ft | 453 kts | 139° |
| 2026-05-04 18:27 | 49.88117 | 15.48143 | 36942 ft | 453 kts | 139° |
| 2026-05-04 18:28 | 49.83584 | 15.54945 | 36946 ft | 454 kts | 139° |
| 2026-05-04 18:28 | 49.79073 | 15.61695 | 36931 ft | 454 kts | 139° |
| 2026-05-04 18:29 | 49.74524 | 15.68483 | 36943 ft | 454 kts | 139° |
| 2026-05-04 18:29 | 49.69969 | 15.75261 | 36951 ft | 455 kts | 139° |
| 2026-05-04 18:30 | 49.63198 | 15.85302 | 36956 ft | 455 kts | 139° |
| 2026-05-04 18:31 | 49.58622 | 15.92065 | 36945 ft | 456 kts | 139° |
| 2026-05-04 18:31 | 49.54045 | 15.98812 | 36962 ft | 456 kts | 139° |
| 2026-05-04 18:32 | 49.49459 | 16.05553 | 36959 ft | 455 kts | 139° |
| 2026-05-04 18:32 | 49.44876 | 16.12273 | 36963 ft | 455 kts | 139° |
| 2026-05-04 18:33 | 49.40298 | 16.18985 | 36959 ft | 455 kts | 138° |
| 2026-05-04 18:33 | 49.35711 | 16.25686 | 36955 ft | 455 kts | 138° |
| 2026-05-04 18:34 | 49.31118 | 16.32362 | 36965 ft | 454 kts | 139° |
| 2026-05-04 18:34 | 49.26526 | 16.39017 | 36966 ft | 454 kts | 139° |
| 2026-05-04 18:35 | 49.21962 | 16.45617 | 36959 ft | 454 kts | 139° |
| 2026-05-04 18:35 | 49.17369 | 16.52242 | 36967 ft | 454 kts | 139° |
| 2026-05-04 18:36 | 49.12771 | 16.58858 | 36957 ft | 454 kts | 138° |
| 2026-05-04 18:36 | 49.08171 | 16.65457 | 36969 ft | 454 kts | 138° |
| 2026-05-04 18:37 | 49.03567 | 16.72045 | 36970 ft | 454 kts | 139° |
| 2026-05-04 18:37 | 48.98954 | 16.78628 | 36933 ft | 455 kts | 139° |
| 2026-05-04 18:37 | 48.96645 | 16.81917 | 36629 ft | 453 kts | 139° |
| 2026-05-04 18:38 | 48.94356 | 16.85174 | 36361 ft | 447 kts | 139° |
| 2026-05-04 18:38 | 48.92094 | 16.88389 | 36091 ft | 442 kts | 139° |
| 2026-05-04 18:38 | 48.89856 | 16.91565 | 35830 ft | 439 kts | 138° |
| 2026-05-04 18:38 | 48.87620 | 16.94733 | 35570 ft | 439 kts | 138° |
| 2026-05-04 18:39 | 48.85401 | 16.97897 | 35324 ft | 438 kts | 136° |
| 2026-05-04 18:39 | 48.83362 | 17.01335 | 35075 ft | 437 kts | 130° |
| 2026-05-04 18:39 | 48.81441 | 17.04911 | 34837 ft | 437 kts | 129° |
| 2026-05-04 18:39 | 48.79559 | 17.08516 | 34594 ft | 436 kts | 129° |
| 2026-05-04 18:40 | 48.77684 | 17.12114 | 34358 ft | 435 kts | 129° |
| 2026-05-04 18:40 | 48.75798 | 17.15702 | 34114 ft | 434 kts | 129° |
| 2026-05-04 18:40 | 48.73909 | 17.19260 | 33870 ft | 433 kts | 129° |
| 2026-05-04 18:40 | 48.72012 | 17.22802 | 33596 ft | 432 kts | 129° |
| 2026-05-04 18:41 | 48.70115 | 17.26322 | 33322 ft | 431 kts | 130° |
| 2026-05-04 18:41 | 48.68223 | 17.29819 | 33073 ft | 428 kts | 130° |
| 2026-05-04 18:41 | 48.66375 | 17.33225 | 32988 ft | 422 kts | 130° |
| 2026-05-04 18:42 | 48.62666 | 17.40048 | 32987 ft | 420 kts | 130° |
| 2026-05-04 18:42 | 48.59041 | 17.46700 | 32953 ft | 398 kts | 130° |
| 2026-05-04 18:42 | 48.57308 | 17.49875 | 32960 ft | 386 kts | 130° |
| 2026-05-04 18:43 | 48.55629 | 17.52950 | 32951 ft | 374 kts | 130° |
| 2026-05-04 18:43 | 48.52352 | 17.58935 | 32506 ft | 368 kts | 130° |
| 2026-05-04 18:43 | 48.50707 | 17.61936 | 31782 ft | 377 kts | 130° |
| 2026-05-04 18:44 | 48.48988 | 17.65065 | 30674 ft | 399 kts | 130° |
| 2026-05-04 18:44 | 48.48408 | 17.66121 | 30426 ft | 402 kts | 130° |
| 2026-05-04 18:44 | 48.45409 | 17.71573 | 29750 ft | 400 kts | 130° |
| 2026-05-04 18:44 | 48.43643 | 17.74780 | 29448 ft | 394 kts | 130° |
| 2026-05-04 18:45 | 48.41900 | 17.77941 | 29068 ft | 391 kts | 130° |
| 2026-05-04 18:45 | 48.40168 | 17.81077 | 28660 ft | 389 kts | 130° |
| 2026-05-04 18:45 | 48.38461 | 17.84164 | 28263 ft | 387 kts | 130° |
| 2026-05-04 18:45 | 48.36744 | 17.87268 | 27878 ft | 385 kts | 130° |
| 2026-05-04 18:46 | 48.35038 | 17.90347 | 27512 ft | 382 kts | 130° |
| 2026-05-04 18:46 | 48.33343 | 17.93402 | 27150 ft | 379 kts | 130° |
| 2026-05-04 18:46 | 48.31656 | 17.96440 | 26787 ft | 377 kts | 130° |
| 2026-05-04 18:46 | 48.29980 | 17.99454 | 26434 ft | 375 kts | 130° |
| 2026-05-04 18:47 | 48.28312 | 18.02451 | 26068 ft | 373 kts | 130° |
| 2026-05-04 18:47 | 48.26653 | 18.05428 | 25729 ft | 371 kts | 130° |
| 2026-05-04 18:47 | 48.25557 | 18.07392 | 25488 ft | 369 kts | 130° |
| 2026-05-04 18:47 | 48.23912 | 18.10340 | 25144 ft | 367 kts | 130° |
| 2026-05-04 18:48 | 48.22276 | 18.13268 | 24811 ft | 366 kts | 130° |
| 2026-05-04 18:48 | 48.20646 | 18.16180 | 24468 ft | 364 kts | 130° |
| 2026-05-04 18:48 | 48.19023 | 18.19079 | 24140 ft | 362 kts | 130° |
| 2026-05-04 18:48 | 48.17407 | 18.21960 | 23809 ft | 360 kts | 130° |
| 2026-05-04 18:49 | 48.15799 | 18.24826 | 23485 ft | 359 kts | 130° |
| 2026-05-04 18:49 | 48.14199 | 18.27673 | 23098 ft | 357 kts | 130° |
| 2026-05-04 18:49 | 48.12607 | 18.30504 | 22762 ft | 354 kts | 131° |
| 2026-05-04 18:49 | 48.11028 | 18.33309 | 22425 ft | 351 kts | 131° |
| 2026-05-04 18:50 | 48.09459 | 18.36094 | 22088 ft | 349 kts | 131° |
| 2026-05-04 18:50 | 48.07899 | 18.38859 | 21746 ft | 347 kts | 131° |
| 2026-05-04 18:50 | 48.06349 | 18.41603 | 21414 ft | 344 kts | 131° |
| 2026-05-04 18:50 | 48.04807 | 18.44331 | 21089 ft | 342 kts | 131° |
| 2026-05-04 18:51 | 48.03277 | 18.47038 | 20764 ft | 340 kts | 131° |
| 2026-05-04 18:51 | 48.01756 | 18.49724 | 20463 ft | 338 kts | 131° |
| 2026-05-04 18:51 | 48.00242 | 18.52392 | 20138 ft | 336 kts | 131° |
| 2026-05-04 18:51 | 47.98736 | 18.55044 | 19832 ft | 333 kts | 131° |
| 2026-05-04 18:52 | 47.97395 | 18.57850 | 19517 ft | 333 kts | 119° |
| 2026-05-04 18:52 | 47.96512 | 18.61029 | 19214 ft | 331 kts | 110° |
| 2026-05-04 18:52 | 47.95796 | 18.64292 | 18909 ft | 330 kts | 109° |
| 2026-05-04 18:52 | 47.95096 | 18.67555 | 18455 ft | 333 kts | 109° |
| 2026-05-04 18:53 | 47.94376 | 18.70887 | 17809 ft | 341 kts | 109° |
| 2026-05-04 18:53 | 47.93642 | 18.74247 | 17167 ft | 347 kts | 109° |
| 2026-05-04 18:53 | 47.92881 | 18.77694 | 16530 ft | 353 kts | 110° |
| 2026-05-04 18:53 | 47.92103 | 18.81192 | 15918 ft | 357 kts | 110° |
| 2026-05-04 18:54 | 47.91313 | 18.84727 | 15297 ft | 361 kts | 110° |
| 2026-05-04 18:54 | 47.90514 | 18.88298 | 14697 ft | 364 kts | 110° |
| 2026-05-04 18:54 | 47.89708 | 18.91892 | 14104 ft | 367 kts | 110° |
| 2026-05-04 18:54 | 47.88892 | 18.95515 | 13465 ft | 369 kts | 110° |
| 2026-05-04 18:55 | 47.87881 | 18.99016 | 12797 ft | 368 kts | 123° |
| 2026-05-04 18:55 | 47.84533 | 19.04683 | 11565 ft | 367 kts | 135° |
| 2026-05-04 18:55 | 47.82789 | 19.07398 | 10945 ft | 358 kts | 136° |
| 2026-05-04 18:56 | 47.80844 | 19.09561 | 10305 ft | 345 kts | 159° |
| 2026-05-04 18:56 | 47.78550 | 19.10294 | 9715 ft | 333 kts | 178° |
| 2026-05-04 18:56 | 47.76269 | 19.10079 | 9066 ft | 325 kts | 192° |
| 2026-05-04 18:56 | 47.74100 | 19.09262 | 8444 ft | 319 kts | 196° |
| 2026-05-04 18:57 | 47.71983 | 19.08387 | 7823 ft | 314 kts | 196° |
| 2026-05-04 18:57 | 47.69886 | 19.07537 | 7201 ft | 310 kts | 195° |
| 2026-05-04 18:57 | 47.67842 | 19.06606 | 6609 ft | 304 kts | 205° |
| 2026-05-04 18:57 | 47.66166 | 19.04819 | 6035 ft | 291 kts | 222° |
| 2026-05-04 18:58 | 47.64729 | 19.02838 | 5392 ft | 281 kts | 222° |
| 2026-05-04 18:58 | 47.63320 | 19.00905 | 4792 ft | 272 kts | 221° |
| 2026-05-04 18:58 | 47.61773 | 18.99460 | 4239 ft | 259 kts | 194° |
| 2026-05-04 18:58 | 47.60074 | 18.99627 | 4100 ft | 241 kts | 159° |
| 2026-05-04 18:59 | 47.58710 | 19.00865 | 4035 ft | 227 kts | 149° |
| 2026-05-04 18:59 | 47.57482 | 19.02259 | 3946 ft | 219 kts | 144° |
| 2026-05-04 18:59 | 47.56339 | 19.03716 | 3696 ft | 216 kts | 141° |
| 2026-05-04 18:59 | 47.55279 | 19.05270 | 3435 ft | 213 kts | 137° |
| 2026-05-04 19:00 | 47.54276 | 19.06870 | 3156 ft | 211 kts | 137° |
| 2026-05-04 19:00 | 47.53294 | 19.08460 | 2887 ft | 207 kts | 136° |
| 2026-05-04 19:00 | 47.52327 | 19.10022 | 2613 ft | 204 kts | 136° |
| 2026-05-04 19:00 | 47.51383 | 19.11549 | 2353 ft | 196 kts | 137° |
| 2026-05-04 19:01 | 47.50486 | 19.12994 | 2088 ft | 185 kts | 137° |
| 2026-05-04 19:01 | 47.49647 | 19.14349 | 1861 ft | 172 kts | 137° |
| 2026-05-04 19:01 | 47.48859 | 19.15625 | 1614 ft | 162 kts | 136° |
| 2026-05-04 19:01 | 47.48124 | 19.16815 | 1453 ft | 155 kts | 136° |
| 2026-05-04 19:02 | 47.47387 | 19.17991 | 1206 ft | 156 kts | 135° |
| 2026-05-04 19:02 | 47.46669 | 19.19173 | 1009 ft | 153 kts | 133° |
| 2026-05-04 19:02 | 47.45948 | 19.20331 | 791 ft | 154 kts | 134° |
| 2026-05-04 19:02 | 47.45227 | 19.21513 | 584 ft | 156 kts | 134° |
| 2026-05-04 19:03 | 47.44504 | 19.22670 | 463 ft | 149 kts | 131° |
| 2026-05-04 19:03 | 47.43879 | 19.23678 | 460 ft | 116 kts | 132° |
| 2026-05-04 19:03 | 47.43430 | 19.24403 | 460 ft | 67 kts | 133° |
| 2026-05-04 19:03 | 47.43195 | 19.24782 | 462 ft | 38 kts | 132° |
| 2026-05-04 19:04 | 47.43099 | 19.24975 | 461 ft | 18 kts | 102° |
| 2026-05-04 19:04 | 47.43142 | 19.25115 | 466 ft | 13 kts | 34° |
| 2026-05-04 19:04 | 47.43157 | 19.25134 | 464 ft | 0 kts | 41° |
| 2026-05-04 19:05 | 47.43167 | 19.25149 | 466 ft | 5 kts | 44° |
| 2026-05-04 19:06 | 47.43212 | 19.25210 | 467 ft | 12 kts | 43° |
| 2026-05-04 19:06 | 47.43292 | 19.25317 | 466 ft | 17 kts | 41° |
| 2026-05-04 19:06 | 47.43381 | 19.25434 | 468 ft | 17 kts | 44° |
| 2026-05-04 19:06 | 47.43465 | 19.25551 | 468 ft | 16 kts | 43° |
| 2026-05-04 19:07 | 47.43539 | 19.25667 | 468 ft | 15 kts | 78° |
| 2026-05-04 19:07 | 47.43489 | 19.25794 | 468 ft | 12 kts | 124° |
| 2026-05-04 19:07 | 47.43452 | 19.25883 | 468 ft | 10 kts | 132° |
| 2026-05-04 19:07 | 47.43398 | 19.25895 | 468 ft | 8 kts | 211° |
| 2026-05-04 19:08 | 47.43358 | 19.25843 | 468 ft | 4 kts | 222° |
| 2026-05-04 19:08 | 47.43354 | 19.25838 | 468 ft | 0 kts | 222° |